createdAt,value
2024-04-21T00:01:28.500Z,93.89
2024-04-21T00:03:55.749Z,93.88
2024-04-21T00:06:22.762Z,94.11
2024-04-21T00:08:49.588Z,94.37
2024-04-21T00:11:16.449Z,93.27
2024-04-21T00:13:43.293Z,93.39
2024-04-21T00:16:10.240Z,93.30
2024-04-21T00:18:37.103Z,93.72
2024-04-21T00:21:04.265Z,93.51
2024-04-21T00:23:33.093Z,93.67
2024-04-21T00:26:00.820Z,93.48
2024-04-21T00:28:30.429Z,93.31
2024-04-21T00:30:57.879Z,93.90
2024-04-21T00:33:24.871Z,93.87
2024-04-21T00:35:51.752Z,94.39
2024-04-21T00:38:18.571Z,93.98
2024-04-21T00:40:45.390Z,94.50
2024-04-21T00:43:12.773Z,95.29
2024-04-21T00:45:47.323Z,96.05
2024-04-21T00:48:14.998Z,96.54
2024-04-21T00:50:46.822Z,97.16
2024-04-21T00:53:15.934Z,97.27
2024-04-21T00:55:42.879Z,96.87
2024-04-21T00:58:10.770Z,97.11
2024-04-21T01:00:37.986Z,96.81
2024-04-21T01:03:05.601Z,96.69
2024-04-21T01:05:32.840Z,96.70
2024-04-21T01:08:00.595Z,96.36
2024-04-21T01:10:27.481Z,96.85
2024-04-21T01:12:54.362Z,96.40
2024-04-21T01:15:21.170Z,95.49
2024-04-21T01:17:48.227Z,95.36
2024-04-21T01:20:16.151Z,94.50
2024-04-21T01:22:50.645Z,93.54
2024-04-21T01:25:18.023Z,92.94
2024-04-21T01:27:45.262Z,92.88
2024-04-21T01:30:12.302Z,92.88
2024-04-21T01:32:40.750Z,93.27
2024-04-21T01:35:07.960Z,93.92
2024-04-21T01:37:36.470Z,94.63
2024-04-21T01:40:04.597Z,94.36
2024-04-21T01:42:31.465Z,94.62
2024-04-21T01:44:58.328Z,94.78
2024-04-21T01:47:25.357Z,94.70
2024-04-21T01:49:52.240Z,95.10
2024-04-21T01:52:19.116Z,95.14
2024-04-21T01:54:46.029Z,95.05
2024-04-21T01:57:12.865Z,94.89
2024-04-21T01:59:39.657Z,94.39
2024-04-21T02:02:06.471Z,94.95
2024-04-21T02:04:33.373Z,94.81
2024-04-21T02:07:00.210Z,94.73
2024-04-21T02:09:27.075Z,95.07
2024-04-21T02:11:53.873Z,95.69
2024-04-21T02:14:20.648Z,95.79
2024-04-21T02:16:47.449Z,96.11
2024-04-21T02:19:14.280Z,96.48
2024-04-21T02:21:41.132Z,96.61
2024-04-21T02:24:08.128Z,96.80
2024-04-21T02:26:34.947Z,97.06
2024-04-21T02:29:01.759Z,97.79
2024-04-21T02:31:29.200Z,97.79
2024-04-21T02:33:56.114Z,97.79
2024-04-21T02:36:22.990Z,98.15
2024-04-21T02:38:49.771Z,98.63
2024-04-21T02:41:16.563Z,98.63
2024-04-21T02:43:43.332Z,99.15
2024-04-21T02:46:11.626Z,99.76
2024-04-21T02:48:38.482Z,100.00
2024-04-21T02:51:05.374Z,100.00
2024-04-21T02:53:32.163Z,100.00
2024-04-21T02:55:59.532Z,100.00
2024-04-21T02:58:26.428Z,100.00
2024-04-21T03:00:53.477Z,100.00
2024-04-21T03:03:21.255Z,100.00
2024-04-21T03:05:58.444Z,100.00
2024-04-21T03:08:25.986Z,100.00
2024-04-21T03:10:52.845Z,100.00
2024-04-21T03:13:20.351Z,100.00
2024-04-21T03:15:47.445Z,100.00
2024-04-21T03:18:14.268Z,100.00
2024-04-21T03:20:41.129Z,100.00
2024-04-21T03:23:08.436Z,100.00
2024-04-21T03:25:36.266Z,100.00
2024-04-21T03:28:03.190Z,100.00
2024-04-21T03:30:29.981Z,100.00
2024-04-21T03:32:56.863Z,100.00
2024-04-21T03:35:23.779Z,100.00
2024-04-21T03:37:50.635Z,100.00
2024-04-21T03:40:17.567Z,100.00
2024-04-21T03:42:44.391Z,100.00
2024-04-21T03:45:11.218Z,100.00
2024-04-21T03:47:38.097Z,100.00
2024-04-21T03:50:05.447Z,100.00
2024-04-21T03:52:32.223Z,100.00
2024-04-21T03:54:59.209Z,100.00
2024-04-21T03:57:31.261Z,100.00
2024-04-21T03:59:58.250Z,100.00
2024-04-21T04:02:25.062Z,100.00
2024-04-21T04:04:51.969Z,100.00
2024-04-21T04:07:19.111Z,100.00
2024-04-21T04:09:46.317Z,100.00
2024-04-21T04:12:13.151Z,100.00
2024-04-21T04:14:39.888Z,100.00
2024-04-21T04:17:06.669Z,100.00
2024-04-21T04:19:33.458Z,100.00
2024-04-21T04:22:00.264Z,100.00
2024-04-21T04:24:27.068Z,100.00
2024-04-21T04:26:53.918Z,100.00
2024-04-21T04:29:21.110Z,100.00
2024-04-21T04:31:47.879Z,100.00
2024-04-21T04:34:16.146Z,100.00
2024-04-21T04:36:43.111Z,100.00
2024-04-21T04:39:10.388Z,100.00
2024-04-21T04:41:37.200Z,100.00
2024-04-21T04:44:03.986Z,100.00
2024-04-21T04:46:30.791Z,100.00
2024-04-21T04:48:57.588Z,100.00
2024-04-21T04:51:24.515Z,100.00
2024-04-21T04:53:51.301Z,100.00
2024-04-21T04:56:18.104Z,100.00
2024-04-21T04:58:44.864Z,100.00
2024-04-21T05:01:11.733Z,100.00
2024-04-21T05:03:38.560Z,100.00
2024-04-21T05:06:05.474Z,100.00
2024-04-21T05:08:32.224Z,100.00
2024-04-21T05:10:59.027Z,100.00
2024-04-21T05:13:25.857Z,100.00
2024-04-21T05:15:55.274Z,100.00
2024-04-21T05:18:22.337Z,100.00
2024-04-21T05:20:49.103Z,100.00
2024-04-21T05:23:15.897Z,100.00
2024-04-21T05:25:42.647Z,100.00
2024-04-21T05:28:09.530Z,100.00
2024-04-21T05:30:38.116Z,100.00
2024-04-21T05:33:05.112Z,100.00
2024-04-21T05:35:31.966Z,100.00
2024-04-21T05:37:59.602Z,100.00
2024-04-21T05:40:26.472Z,100.00
2024-04-21T05:42:53.417Z,100.00
2024-04-21T05:45:20.363Z,100.00
2024-04-21T05:47:47.375Z,100.00
2024-04-21T05:50:14.372Z,100.00
2024-04-21T05:52:41.173Z,100.00
2024-04-21T05:55:08.084Z,100.00
2024-04-21T05:57:35.017Z,100.00
2024-04-21T06:00:01.987Z,100.00
2024-04-21T06:02:31.258Z,100.00
2024-04-21T06:04:58.113Z,100.00
2024-04-21T06:07:25.056Z,100.00
2024-04-21T06:09:53.834Z,100.00
2024-04-21T06:12:20.650Z,100.00
2024-04-21T06:14:47.423Z,100.00
2024-04-21T06:17:14.512Z,100.00
2024-04-21T06:19:41.330Z,100.00
2024-04-21T06:22:08.421Z,100.00
2024-04-21T06:24:35.233Z,100.00
2024-04-21T06:27:02.612Z,100.00
2024-04-21T06:29:29.405Z,100.00
2024-04-21T06:31:56.223Z,100.00
2024-04-21T06:34:23.150Z,100.00
2024-04-21T06:36:50.002Z,100.00
2024-04-21T06:39:16.772Z,100.00
2024-04-21T06:41:43.558Z,100.00
2024-04-21T06:44:10.312Z,100.00
2024-04-21T06:46:37.094Z,100.00
2024-04-21T06:49:03.968Z,100.00
2024-04-21T06:51:30.812Z,100.00
2024-04-21T06:53:57.643Z,100.00
2024-04-21T06:56:24.490Z,100.00
2024-04-21T06:58:51.305Z,100.00
2024-04-21T07:01:18.184Z,100.00
2024-04-21T07:03:45.448Z,100.00
2024-04-21T07:06:12.175Z,100.00
2024-04-21T07:08:38.972Z,100.00
2024-04-21T07:11:06.820Z,100.00
2024-04-21T07:13:33.846Z,100.00
2024-04-21T07:16:00.768Z,100.00
2024-04-21T07:18:27.685Z,100.00
2024-04-21T07:20:54.479Z,100.00
2024-04-21T07:23:21.273Z,100.00
2024-04-21T07:25:48.031Z,100.00
2024-04-21T07:28:14.814Z,100.00
2024-04-21T07:30:41.693Z,100.00
2024-04-21T07:33:08.521Z,100.00
2024-04-21T07:35:35.419Z,100.00
2024-04-21T07:38:05.124Z,100.00
2024-04-21T07:40:33.438Z,99.01
2024-04-21T07:43:00.348Z,95.06
2024-04-21T07:45:27.340Z,92.74
2024-04-21T07:47:54.288Z,89.85
2024-04-21T07:50:21.123Z,87.59
2024-04-21T07:52:48.022Z,82.45
2024-04-21T07:55:14.950Z,80.83
2024-04-21T07:57:41.757Z,79.16
2024-04-21T08:00:09.488Z,76.16
2024-04-21T08:02:39.318Z,80.17
2024-04-21T08:05:06.400Z,81.41
2024-04-21T08:07:33.279Z,77.05
2024-04-21T08:10:00.057Z,76.54
2024-04-21T08:12:26.883Z,75.03
2024-04-21T08:14:53.644Z,73.01
2024-04-21T08:17:20.457Z,72.47
2024-04-21T08:19:47.236Z,71.26
2024-04-21T08:22:14.143Z,70.46
2024-04-21T08:24:41.039Z,69.28
2024-04-21T08:27:07.787Z,68.99
2024-04-21T08:29:34.542Z,69.76
2024-04-21T08:32:01.390Z,70.39
2024-04-21T08:34:28.405Z,69.58
2024-04-21T08:36:55.332Z,68.33
2024-04-21T08:39:22.189Z,67.79
2024-04-21T08:41:48.990Z,66.51
2024-04-21T08:44:16.270Z,65.84
2024-04-21T08:46:43.859Z,62.91
2024-04-21T08:49:11.193Z,61.71
2024-04-21T08:51:40.126Z,58.91
2024-04-21T08:54:06.989Z,59.53
2024-04-21T08:56:34.042Z,57.63
2024-04-21T08:59:03.645Z,57.35
2024-04-21T09:01:31.104Z,56.69
2024-04-21T09:03:58.327Z,57.12
2024-04-21T09:06:27.376Z,57.25
2024-04-21T09:08:55.199Z,56.88
2024-04-21T09:11:22.268Z,57.62
2024-04-21T09:13:49.977Z,58.59
2024-04-21T09:16:16.877Z,58.13
2024-04-21T09:18:43.773Z,57.49
2024-04-21T09:21:11.489Z,56.21
2024-04-21T09:23:41.720Z,58.22
2024-04-21T09:26:12.405Z,57.89
2024-04-21T09:28:39.967Z,57.79
2024-04-21T09:31:06.746Z,57.37
2024-04-21T09:33:34.292Z,57.46
2024-04-21T09:36:01.330Z,58.19
2024-04-21T09:38:30.107Z,59.41
2024-04-21T09:40:58.379Z,58.99
2024-04-21T09:43:28.151Z,57.80
2024-04-21T09:45:55.173Z,57.99
2024-04-21T09:48:23.159Z,56.60
2024-04-21T09:50:50.390Z,56.76
2024-04-21T09:53:20.064Z,54.23
2024-04-21T09:55:49.064Z,55.27
2024-04-21T09:58:18.293Z,55.21
2024-04-21T10:00:50.148Z,55.59
2024-04-21T10:03:18.265Z,55.18
2024-04-21T10:05:45.646Z,54.62
2024-04-21T10:08:12.757Z,54.78
2024-04-21T10:10:41.384Z,53.69
2024-04-21T10:13:08.738Z,52.55
2024-04-21T10:15:36.988Z,53.62
2024-04-21T10:18:04.176Z,53.99
2024-04-21T10:20:38.696Z,52.59
2024-04-21T10:23:10.804Z,50.84
2024-04-21T10:25:40.544Z,49.73
2024-04-21T10:28:08.183Z,50.64
2024-04-21T10:30:36.886Z,49.63
2024-04-21T10:33:10.825Z,50.10
2024-04-21T10:35:39.097Z,50.19
2024-04-21T10:38:14.237Z,49.12
2024-04-21T10:40:50.146Z,49.88
2024-04-21T10:43:18.704Z,48.71
2024-04-21T10:48:12.518Z,47.45
2024-04-21T10:50:41.064Z,46.78
2024-04-21T10:53:08.846Z,47.42
2024-04-21T10:55:36.778Z,48.29
2024-04-21T10:58:08.036Z,48.53
2024-04-21T11:00:39.132Z,47.13
2024-04-21T11:03:07.225Z,46.40
2024-04-21T11:05:45.348Z,46.09
2024-04-21T11:08:12.328Z,46.15
2024-04-21T11:10:42.190Z,46.73
2024-04-21T11:13:09.120Z,47.02
2024-04-21T11:15:42.970Z,47.46
2024-04-21T11:18:10.187Z,47.53
2024-04-21T11:20:37.551Z,47.69
2024-04-21T11:23:04.898Z,48.11
2024-04-21T11:25:31.949Z,48.20
2024-04-21T11:27:58.769Z,48.75
2024-04-21T11:30:26.178Z,49.17
2024-04-21T11:32:53.143Z,49.31
2024-04-21T11:35:20.581Z,48.96
2024-04-21T11:37:50.126Z,49.10
2024-04-21T11:40:19.085Z,49.45
2024-04-21T11:42:46.620Z,50.21
2024-04-21T11:45:24.078Z,50.45
2024-04-21T11:47:55.596Z,48.89
2024-04-21T11:50:23.532Z,49.00
2024-04-21T11:52:50.409Z,49.26
2024-04-21T11:55:17.401Z,48.91
2024-04-21T11:57:44.417Z,48.96
2024-04-21T12:00:11.917Z,48.43
2024-04-21T12:02:38.657Z,48.25
2024-04-21T12:05:05.617Z,48.40
2024-04-21T12:07:32.466Z,48.11
2024-04-21T12:09:59.522Z,47.74
2024-04-21T12:12:26.295Z,47.32
2024-04-21T12:14:53.107Z,47.99
2024-04-21T12:17:22.815Z,48.22
2024-04-21T12:19:53.499Z,48.14
2024-04-21T12:22:21.459Z,46.15
2024-04-21T12:24:48.298Z,45.08
2024-04-21T12:27:16.096Z,44.47
2024-04-21T12:29:42.843Z,44.22
2024-04-21T12:32:09.644Z,43.59
2024-04-21T12:34:36.471Z,43.71
2024-04-21T12:37:03.314Z,43.67
2024-04-21T12:39:30.158Z,44.20
2024-04-21T12:41:57.383Z,44.47
2024-04-21T12:44:24.188Z,43.41
2024-04-21T12:46:51.074Z,44.10
2024-04-21T12:49:18.008Z,42.65
2024-04-21T12:51:47.462Z,43.53
2024-04-21T12:54:16.544Z,43.96
2024-04-21T12:56:44.607Z,44.24
2024-04-21T12:59:11.376Z,43.88
2024-04-21T13:01:38.237Z,43.67
2024-04-21T13:04:07.135Z,43.67
2024-04-21T13:06:34.044Z,42.32
2024-04-21T13:09:00.926Z,41.85
2024-04-21T13:11:28.184Z,40.75
2024-04-21T13:13:55.036Z,41.54
2024-04-21T13:16:21.896Z,40.55
2024-04-21T13:18:48.718Z,41.66
2024-04-21T13:21:15.571Z,42.25
2024-04-21T13:23:43.451Z,42.19
2024-04-21T13:26:11.094Z,42.02
2024-04-21T13:28:38.018Z,42.37
2024-04-21T13:31:04.906Z,42.71
2024-04-21T13:33:31.720Z,42.94
2024-04-21T13:35:58.584Z,43.24
2024-04-21T13:38:25.393Z,44.07
2024-04-21T13:40:52.258Z,44.00
2024-04-21T13:43:19.169Z,44.13
2024-04-21T13:45:46.019Z,44.49
2024-04-21T13:48:14.336Z,47.20
2024-04-21T13:50:41.490Z,48.78
2024-04-21T13:53:09.020Z,50.03
2024-04-21T13:55:36.004Z,51.04
2024-04-21T13:58:03.109Z,50.33
2024-04-21T14:00:29.924Z,50.04
2024-04-21T14:02:56.819Z,51.71
2024-04-21T14:05:23.640Z,52.89
2024-04-21T14:07:52.094Z,52.86
2024-04-21T14:10:19.019Z,52.80
2024-04-21T14:12:45.975Z,53.41
2024-04-21T14:15:12.743Z,53.86
2024-04-21T14:17:39.636Z,53.09
2024-04-21T14:20:07.300Z,54.10
2024-04-21T14:22:34.176Z,54.04
2024-04-21T14:25:00.975Z,52.62
2024-04-21T14:27:27.739Z,52.42
2024-04-21T14:29:56.467Z,51.80
2024-04-21T14:32:26.637Z,50.85
2024-04-21T14:34:54.198Z,50.42
2024-04-21T14:37:21.005Z,50.41
2024-04-21T14:39:47.768Z,49.71
2024-04-21T14:42:16.081Z,50.83
2024-04-21T14:44:48.764Z,50.81
2024-04-21T14:47:18.682Z,50.22
2024-04-21T14:49:48.429Z,49.87
2024-04-21T14:52:15.543Z,49.36
2024-04-21T14:54:42.357Z,50.40
2024-04-21T14:57:09.140Z,49.86
2024-04-21T14:59:35.868Z,50.18
2024-04-21T15:02:02.653Z,50.65
2024-04-21T15:04:31.458Z,51.03
2024-04-21T15:07:01.695Z,51.67
2024-04-21T15:09:28.502Z,51.79
2024-04-21T15:11:55.227Z,51.84
2024-04-21T15:14:21.986Z,51.74
2024-04-21T15:16:48.971Z,53.55
2024-04-21T15:19:15.814Z,54.51
2024-04-21T15:21:42.626Z,55.71
2024-04-21T15:24:09.474Z,56.20
2024-04-21T15:26:36.290Z,56.65
2024-04-21T15:29:03.237Z,56.88
2024-04-21T15:31:30.054Z,55.53
2024-04-21T15:33:56.920Z,56.12
2024-04-21T15:36:23.759Z,56.90
2024-04-21T15:38:50.604Z,58.95
2024-04-21T15:41:17.328Z,59.96
2024-04-21T15:43:44.091Z,61.28
2024-04-21T15:46:11.808Z,61.39
2024-04-21T15:48:38.606Z,62.57
2024-04-21T15:51:06.942Z,63.63
2024-04-21T15:53:33.979Z,64.45
2024-04-21T15:56:03.292Z,66.40
2024-04-21T15:58:31.013Z,67.99
2024-04-21T16:00:58.201Z,70.47
2024-04-21T16:03:25.180Z,71.95
2024-04-21T16:05:52.055Z,74.25
2024-04-21T16:08:18.853Z,75.50
2024-04-21T16:10:46.227Z,77.00
2024-04-21T16:13:13.339Z,77.88
2024-04-21T16:15:40.142Z,77.97
2024-04-21T16:18:07.028Z,77.86
2024-04-21T16:20:33.898Z,77.48
2024-04-21T16:23:01.602Z,77.39
2024-04-21T16:25:28.418Z,77.71
2024-04-21T16:27:55.201Z,78.18
2024-04-21T16:30:22.057Z,79.02
2024-04-21T16:32:49.053Z,80.28
2024-04-21T16:35:16.145Z,80.14
2024-04-21T16:37:43.156Z,80.50
2024-04-21T16:40:10.506Z,80.81
2024-04-21T16:42:37.533Z,80.72
2024-04-21T16:45:04.907Z,81.27
2024-04-21T16:47:36.172Z,81.47
2024-04-21T16:50:03.468Z,82.11
2024-04-21T16:52:30.835Z,82.87
2024-04-21T16:54:57.978Z,83.80
2024-04-21T16:57:26.018Z,83.84
2024-04-21T16:59:53.151Z,83.76
2024-04-21T17:02:20.123Z,83.28
2024-04-21T17:04:49.154Z,82.49
2024-04-21T17:07:20.910Z,81.94
2024-04-21T17:09:51.402Z,81.67
2024-04-21T17:12:19.833Z,82.38
2024-04-21T17:14:46.573Z,83.09
2024-04-21T17:17:13.523Z,81.79
2024-04-21T17:19:40.391Z,81.75
2024-04-21T17:22:07.249Z,81.77
2024-04-21T17:24:34.055Z,81.93
2024-04-21T17:27:00.825Z,81.51
2024-04-21T17:29:27.628Z,81.78
2024-04-21T17:31:54.359Z,83.12
2024-04-21T17:34:21.146Z,83.37
2024-04-21T17:36:47.954Z,83.40
2024-04-21T17:39:14.721Z,83.60
2024-04-21T17:41:41.483Z,84.42
2024-04-21T17:44:10.584Z,83.67
2024-04-21T17:46:38.306Z,82.80
2024-04-21T17:49:06.494Z,83.07
2024-04-21T17:51:33.355Z,82.64
2024-04-21T17:54:00.143Z,82.63
2024-04-21T17:56:26.944Z,82.48
2024-04-21T17:58:53.659Z,82.33
2024-04-21T18:01:20.504Z,82.13
2024-04-21T18:03:48.166Z,82.64
2024-04-21T18:06:15.089Z,82.30
2024-04-21T18:08:41.910Z,81.78
2024-04-21T18:11:08.773Z,81.37
2024-04-21T18:13:35.667Z,81.01
2024-04-21T18:16:03.509Z,80.80
2024-04-21T18:18:31.474Z,80.39
2024-04-21T18:20:58.492Z,79.72
2024-04-21T18:23:25.368Z,79.77
2024-04-21T18:25:52.182Z,79.72
2024-04-21T18:28:19.319Z,78.81
2024-04-21T18:30:47.326Z,78.71
2024-04-21T18:33:14.346Z,79.45
2024-04-21T18:35:41.268Z,78.89
2024-04-21T18:38:08.718Z,79.36
2024-04-21T18:40:38.656Z,79.09
2024-04-21T18:43:05.626Z,79.22
2024-04-21T18:45:32.430Z,79.89
2024-04-21T18:47:59.216Z,80.02
2024-04-21T18:50:26.081Z,80.22
2024-04-21T18:52:52.918Z,79.91
2024-04-21T18:55:19.850Z,80.14
2024-04-21T18:57:46.694Z,80.10
2024-04-21T19:00:13.800Z,79.32
2024-04-21T19:02:40.757Z,79.37
2024-04-21T19:05:07.738Z,79.86
2024-04-21T19:07:34.554Z,79.96
2024-04-21T19:10:08.128Z,79.70
2024-04-21T19:12:36.030Z,79.40
2024-04-21T19:15:03.907Z,80.01
2024-04-21T19:17:32.160Z,79.83
2024-04-21T19:19:59.288Z,80.26
2024-04-21T19:22:26.409Z,80.14
2024-04-21T19:24:53.176Z,80.01
2024-04-21T19:27:20.579Z,80.16
2024-04-21T19:29:48.299Z,80.00
2024-04-21T19:32:15.480Z,80.48
2024-04-21T19:34:45.739Z,80.41
2024-04-21T19:37:13.559Z,80.53
2024-04-21T19:39:40.383Z,81.13
2024-04-21T19:42:07.278Z,81.57
2024-04-21T19:44:34.657Z,81.59
2024-04-21T19:47:01.494Z,82.11
2024-04-21T19:49:29.312Z,82.64
2024-04-21T19:51:57.174Z,82.67
2024-04-21T19:54:29.795Z,83.01
2024-04-21T19:56:58.296Z,83.00
2024-04-21T19:59:25.212Z,82.87
2024-04-21T20:01:52.162Z,83.04
2024-04-21T20:04:19.195Z,83.65
2024-04-21T20:06:46.062Z,83.22
2024-04-21T20:09:13.658Z,83.69
2024-04-21T20:11:40.652Z,84.82
2024-04-21T20:14:07.457Z,84.82
2024-04-21T20:16:53.145Z,85.05
2024-04-21T20:19:20.009Z,85.37
2024-04-21T20:21:46.834Z,85.81
2024-04-21T20:24:13.633Z,85.87
2024-04-21T20:26:40.752Z,86.29
2024-04-21T20:29:07.640Z,87.12
2024-04-21T20:31:34.585Z,86.76
2024-04-21T20:34:01.680Z,86.72
2024-04-21T20:36:28.540Z,86.69
2024-04-21T20:38:55.684Z,87.21
2024-04-21T20:41:23.092Z,86.83
2024-04-21T20:43:51.817Z,87.40
2024-04-21T20:46:23.091Z,87.69
2024-04-21T20:48:51.592Z,87.42
2024-04-21T20:51:18.940Z,87.68
2024-04-21T20:53:46.055Z,87.43
2024-04-21T20:56:13.089Z,87.70
2024-04-21T20:58:49.305Z,87.53
2024-04-21T21:01:19.337Z,88.05
2024-04-21T21:03:46.373Z,88.47
2024-04-21T21:06:13.241Z,88.36
2024-04-21T21:08:40.108Z,88.36
2024-04-21T21:11:07.216Z,88.41
2024-04-21T21:13:34.313Z,88.94
2024-04-21T21:16:01.996Z,89.09
2024-04-21T21:18:29.477Z,89.72
2024-04-21T21:20:56.557Z,89.77
2024-04-21T21:23:24.795Z,90.19
2024-04-21T21:25:52.595Z,90.01
2024-04-21T21:28:24.162Z,90.49
2024-04-21T21:30:51.080Z,90.53
2024-04-21T21:33:19.332Z,90.47
2024-04-21T21:35:56.503Z,90.78
2024-04-21T21:38:24.211Z,90.31
2024-04-21T21:40:51.739Z,90.59
2024-04-21T21:43:18.583Z,90.49
2024-04-21T21:45:45.408Z,90.94
2024-04-21T21:48:12.410Z,91.30
2024-04-21T21:50:39.252Z,91.55
2024-04-21T21:53:06.100Z,91.97
2024-04-21T21:55:32.931Z,92.21
2024-04-21T21:57:59.742Z,92.66
2024-04-21T22:00:27.877Z,92.73
2024-04-21T22:02:55.150Z,93.36
2024-04-21T22:05:21.950Z,93.57
2024-04-21T22:07:48.790Z,93.87
2024-04-21T22:10:15.754Z,94.22
2024-04-21T22:12:42.544Z,94.36
2024-04-21T22:15:09.447Z,94.69
2024-04-21T22:17:36.312Z,94.73
2024-04-21T22:20:03.946Z,95.19
2024-04-21T22:22:30.822Z,95.60
2024-04-21T22:24:57.686Z,95.55
2024-04-21T22:27:24.510Z,95.20
2024-04-21T22:29:51.382Z,95.38
2024-04-21T22:32:18.275Z,95.46
2024-04-21T22:34:45.191Z,95.63
2024-04-21T22:37:11.975Z,95.90
2024-04-21T22:39:38.742Z,96.03
2024-04-21T22:42:07.084Z,95.87
2024-04-21T22:44:34.067Z,95.58
2024-04-21T22:47:01.285Z,95.29
2024-04-21T22:49:28.134Z,95.96
2024-04-21T22:51:54.942Z,95.54
2024-04-21T22:54:21.792Z,95.83
2024-04-21T22:56:48.553Z,95.91
2024-04-21T22:59:15.339Z,95.73
2024-04-21T23:01:42.203Z,96.14
2024-04-21T23:04:09.111Z,95.72
2024-04-21T23:06:35.871Z,95.51
2024-04-21T23:09:02.658Z,95.52
2024-04-21T23:11:29.550Z,95.76
2024-04-21T23:13:56.463Z,95.43
2024-04-21T23:16:23.335Z,95.38
2024-04-21T23:18:50.292Z,95.58
2024-04-21T23:21:17.131Z,95.51
2024-04-21T23:23:43.908Z,95.48
2024-04-21T23:26:10.662Z,95.43
2024-04-21T23:28:37.513Z,95.57
2024-04-21T23:31:04.574Z,95.40
2024-04-21T23:33:31.475Z,95.87
2024-04-21T23:35:58.261Z,95.30
2024-04-21T23:38:25.072Z,95.91
2024-04-21T23:40:51.840Z,95.99
2024-04-21T23:43:18.684Z,96.36
2024-04-21T23:45:45.766Z,96.23
2024-04-21T23:48:13.108Z,96.19
2024-04-21T23:50:39.930Z,96.39
2024-04-21T23:53:06.714Z,96.21
2024-04-21T23:55:33.584Z,96.73
2024-04-21T23:58:00.481Z,96.61
